Time;durP1;ratioP1;P1;durP2;ratioP2;P2;SDS_P1;SDS_P2;PMS_P1;PMS_P2;Temp;Humidity;BMP_temperature;BMP_pressure;BME280_temperature;BME280_humidity;BME280_pressure;Samples;Min_cycle;Max_cycle;Signal;HPM_P1;HPM_P2
2023/07/28 00:00:20;;;;;;;7.00;3.50;;;;;;;12.70;72.10;96617.48;107767;1233;108693;-81
2023/07/28 00:03:06;;;;;;;4.10;3.20;;;;;;;12.69;72.10;96617.45;107796;1245;96553;-82
2023/07/28 00:05:33;;;;;;;5.20;3.50;;;;;;;12.69;72.30;96616.96;107974;1233;97156;-81
2023/07/28 00:07:59;;;;;;;4.30;3.30;;;;;;;12.70;72.26;96619.68;107996;1238;96552;-81
2023/07/28 00:10:26;;;;;;;3.80;3.30;;;;;;;12.73;72.40;96621.48;108028;1233;96565;-81
2023/07/28 00:12:52;;;;;;;5.30;3.60;;;;;;;12.78;72.59;96619.95;107987;1239;96625;-81
2023/07/28 00:15:18;;;;;;;3.80;3.10;;;;;;;12.80;72.59;96612.52;107988;1245;96772;-81
2023/07/28 00:17:45;;;;;;;5.30;3.40;;;;;;;12.79;72.60;96608.27;107966;1239;97432;-81
2023/07/28 00:20:11;;;;;;;5.40;3.50;;;;;;;12.81;72.57;96616.24;107961;1238;97843;-81
2023/07/28 00:22:38;;;;;;;7.10;3.40;;;;;;;12.78;72.50;96610.80;107866;1241;96557;-80
2023/07/28 00:25:04;;;;;;;6.10;3.20;;;;;;;12.75;72.37;96603.59;107880;1238;97091;-81
2023/07/28 00:27:31;;;;;;;6.60;3.60;;;;;;;12.71;72.46;96603.34;107954;1239;96965;-83
2023/07/28 00:29:57;;;;;;;3.60;2.70;;;;;;;12.72;72.55;96605.42;107907;1233;97760;-81
2023/07/28 00:32:23;;;;;;;5.90;3.50;;;;;;;12.75;72.46;96603.59;107967;1246;96567;-81
2023/07/28 00:34:49;;;;;;;7.80;3.50;;;;;;;12.74;72.44;96598.60;107823;1243;96767;-81
2023/07/28 00:37:16;;;;;;;4.70;3.40;;;;;;;12.75;72.54;96592.05;107979;1239;96511;-81
2023/07/28 00:39:42;;;;;;;4.10;3.20;;;;;;;12.80;72.56;96592.51;107989;1238;96629;-81
2023/07/28 00:42:09;;;;;;;6.50;3.60;;;;;;;12.82;72.45;96590.60;108017;1245;96637;-83
2023/07/28 00:44:35;;;;;;;6.20;3.10;;;;;;;12.85;72.29;96588.70;107816;1239;97489;-81
2023/07/28 00:47:02;;;;;;;6.70;3.40;;;;;;;12.87;72.41;96588.80;107889;1237;97690;-81
2023/07/28 00:49:29;;;;;;;4.90;3.60;;;;;;;12.87;72.39;96586.90;107919;1238;96529;-81
2023/07/28 00:51:57;;;;;;;3.70;3.10;;;;;;;12.87;72.27;96581.54;108031;1249;96536;-81
2023/07/28 00:54:23;;;;;;;6.10;3.80;;;;;;;12.89;72.41;96581.45;107884;1243;97637;-81
2023/07/28 00:56:50;;;;;;;3.80;3.20;;;;;;;12.93;72.72;96581.41;107812;1238;96541;-81
2023/07/28 00:59:17;;;;;;;4.70;3.20;;;;;;;12.99;72.90;96577.56;107845;1239;96555;-82
2023/07/28 01:01:43;;;;;;;3.80;2.90;;;;;;;13.00;72.51;96573.09;107906;1234;97216;-82
2023/07/28 01:04:10;;;;;;;4.30;3.00;;;;;;;12.99;72.67;96569.70;108055;1238;97751;-81
2023/07/28 01:07:01;;;;;;;4.30;3.70;;;;;;;13.00;72.83;96569.46;107809;1245;102878;-82
2023/07/28 01:09:37;;;;;;;4.60;3.30;;;;;;;13.01;72.64;96563.83;107800;1241;111085;-82
2023/07/28 01:12:08;;;;;;;6.60;4.10;;;;;;;12.98;72.53;96562.80;107910;1245;107655;-81
2023/07/28 01:14:35;;;;;;;4.10;2.80;;;;;;;12.98;72.47;96565.73;107526;1242;97526;-82
2023/07/28 01:17:01;;;;;;;5.40;3.30;;;;;;;12.97;72.44;96564.52;107933;1238;97867;-82
2023/07/28 01:19:28;;;;;;;4.00;3.00;;;;;;;12.98;72.61;96560.64;107884;1238;96632;-81
2023/07/28 01:22:17;;;;;;;4.50;3.40;;;;;;;13.01;72.67;96557.23;107977;1233;96647;-81
2023/07/28 01:25:01;;;;;;;4.50;3.40;;;;;;;13.04;72.74;96556.19;107962;1237;97424;-81
2023/07/28 01:27:29;;;;;;;5.60;3.20;;;;;;;13.09;72.96;96552.46;107821;1239;98233;-81
2023/07/28 01:29:55;;;;;;;4.40;3.20;;;;;;;13.10;72.84;96549.07;107942;1245;100635;-81
2023/07/28 01:32:21;;;;;;;4.10;3.10;;;;;;;13.11;72.96;96544.92;107809;1238;97421;-81
2023/07/28 01:34:48;;;;;;;7.10;3.80;;;;;;;13.16;73.16;96543.39;107911;1238;97438;-81
2023/07/28 01:37:14;;;;;;;4.40;3.30;;;;;;;13.20;73.20;96536.72;107947;1235;96571;-81
2023/07/28 01:39:40;;;;;;;4.70;3.10;;;;;;;13.23;73.27;96529.73;107915;1238;102718;-81
2023/07/28 01:42:07;;;;;;;4.00;3.00;;;;;;;13.27;73.35;96525.61;107877;1245;96564;-82
2023/07/28 01:44:33;;;;;;;4.20;3.10;;;;;;;13.27;73.51;96515.36;107976;1239;96561;-81
2023/07/28 01:46:59;;;;;;;5.60;3.10;;;;;;;13.31;73.63;96520.23;108036;1237;97438;-81
2023/07/28 01:49:26;;;;;;;4.00;3.10;;;;;;;13.36;73.70;96523.23;107895;1241;102916;-81
2023/07/28 01:51:52;;;;;;;4.20;3.20;;;;;;;13.38;73.79;96525.55;107805;1249;97648;-81
2023/07/28 01:54:18;;;;;;;4.90;3.40;;;;;;;13.38;73.68;96523.06;107832;1246;96590;-81
2023/07/28 01:56:44;;;;;;;4.20;3.20;;;;;;;13.42;73.72;96521.73;107985;1239;96555;-81
2023/07/28 01:59:11;;;;;;;3.20;2.80;;;;;;;13.45;73.75;96519.08;107872;1245;102911;-81
2023/07/28 02:01:37;;;;;;;4.10;2.90;;;;;;;13.48;73.92;96513.48;107967;1234;97768;-81
2023/07/28 02:04:04;;;;;;;6.90;3.10;;;;;;;13.49;73.97;96511.48;107928;1239;96639;-81
2023/07/28 02:06:31;;;;;;;3.60;2.80;;;;;;;13.48;73.97;96511.98;107920;1237;96738;-80
2023/07/28 02:08:57;;;;;;;6.60;3.60;;;;;;;13.49;73.99;96510.61;107781;1239;111154;-80
2023/07/28 02:11:23;;;;;;;4.00;3.50;;;;;;;13.50;74.07;96510.10;107793;1238;96535;-80
2023/07/28 02:13:50;;;;;;;5.60;3.10;;;;;;;13.52;74.13;96508.23;107776;1234;97460;-79
2023/07/28 02:16:16;;;;;;;5.30;3.20;;;;;;;13.56;73.95;96505.70;107813;1233;97463;-79
2023/07/28 02:18:43;;;;;;;6.20;3.40;;;;;;;13.58;74.15;96500.44;107847;1238;111841;-79
2023/07/28 02:21:09;;;;;;;5.40;3.10;;;;;;;13.57;74.25;96505.67;107952;1233;97445;-79
2023/07/28 02:23:35;;;;;;;4.00;3.10;;;;;;;13.55;74.21;96507.17;107820;1245;97783;-79
2023/07/28 02:26:01;;;;;;;6.20;3.00;;;;;;;13.58;74.17;96510.27;107869;1249;97744;-80
2023/07/28 02:28:28;;;;;;;3.70;2.70;;;;;;;13.59;74.23;96510.21;107888;1237;102854;-79
2023/07/28 02:30:54;;;;;;;6.10;3.10;;;;;;;13.59;74.27;96510.42;107736;1238;97786;-79
2023/07/28 02:33:20;;;;;;;4.40;2.80;;;;;;;13.62;74.40;96510.20;107768;1237;97833;-79
2023/07/28 02:35:47;;;;;;;4.00;3.00;;;;;;;13.66;74.32;96510.12;107937;1238;96570;-79
2023/07/28 02:38:13;;;;;;;4.40;3.20;;;;;;;13.66;74.39;96509.31;107657;1237;102932;-80
2023/07/28 02:40:39;;;;;;;4.20;3.10;;;;;;;13.68;74.27;96513.58;107780;1245;96541;-80
2023/07/28 02:43:06;;;;;;;3.20;2.90;;;;;;;13.68;74.47;96510.59;107975;1238;96746;-81
2023/07/28 02:45:32;;;;;;;4.50;3.10;;;;;;;13.71;74.38;96510.48;108044;1238;97430;-81
2023/07/28 02:47:58;;;;;;;3.80;3.40;;;;;;;13.72;74.49;96513.84;107824;1246;102952;-81
2023/07/28 02:50:24;;;;;;;4.30;3.20;;;;;;;13.73;74.36;96519.28;107667;1245;97235;-80
2023/07/28 02:52:51;;;;;;;6.90;3.30;;;;;;;13.74;74.48;96515.61;107860;1239;97444;-80
2023/07/28 02:55:17;;;;;;;4.30;3.40;;;;;;;13.74;74.63;96506.00;107991;1236;96562;-81
2023/07/28 02:57:43;;;;;;;7.00;3.70;;;;;;;13.69;74.60;96502.36;107821;1238;109059;-80
2023/07/28 03:00:10;;;;;;;3.90;3.50;;;;;;;13.68;74.77;96502.66;107829;1238;97755;-80
2023/07/28 03:02:37;;;;;;;4.40;3.30;;;;;;;13.70;74.87;96501.13;107791;1239;97438;-81
2023/07/28 03:05:03;;;;;;;4.60;3.60;;;;;;;13.73;74.82;96499.00;107975;1249;97743;-81
2023/07/28 03:07:31;;;;;;;3.60;3.10;;;;;;;13.76;74.65;96497.95;107912;1234;100535;-80
2023/07/28 03:09:58;;;;;;;4.20;3.20;;;;;;;13.78;74.66;96489.77;107984;1238;97757;-81
2023/07/28 03:12:29;;;;;;;5.50;3.50;;;;;;;13.81;74.82;96486.70;107771;1249;127046;-80
2023/07/28 03:14:55;;;;;;;4.00;3.30;;;;;;;13.84;74.84;96488.33;107556;1243;96744;-80
2023/07/28 03:17:22;;;;;;;4.10;3.60;;;;;;;13.87;74.93;96485.17;107934;1233;96539;-81
2023/07/28 03:19:48;;;;;;;5.30;3.30;;;;;;;13.88;75.06;96486.05;107937;1233;97438;-81
2023/07/28 03:22:14;;;;;;;4.90;3.50;;;;;;;13.89;75.08;96489.95;108048;1239;96625;-81
2023/07/28 03:24:41;;;;;;;6.40;4.20;;;;;;;13.89;74.99;96487.19;107820;1233;96629;-81
2023/07/28 03:27:08;;;;;;;6.90;3.50;;;;;;;13.89;74.78;96486.48;107871;1246;97750;-81
2023/07/28 03:29:34;;;;;;;4.40;3.30;;;;;;;13.90;74.97;96488.12;107977;1238;97782;-81
2023/07/28 03:32:01;;;;;;;4.20;3.30;;;;;;;13.91;74.99;96485.04;108019;1241;96628;-80
2023/07/28 03:34:27;;;;;;;3.80;3.20;;;;;;;13.94;74.97;96484.42;108035;1239;96778;-81
2023/07/28 03:36:54;;;;;;;6.50;3.40;;;;;;;13.95;74.81;96481.06;108003;1239;97062;-81
2023/07/28 03:39:20;;;;;;;5.40;3.40;;;;;;;13.92;74.71;96474.35;108012;1237;96558;-81
2023/07/28 03:41:46;;;;;;;3.60;3.00;;;;;;;13.91;74.65;96467.19;107966;1246;97855;-81
2023/07/28 03:44:13;;;;;;;5.70;3.50;;;;;;;13.92;74.63;96465.95;107898;1248;97640;-81
2023/07/28 03:46:39;;;;;;;6.20;3.40;;;;;;;13.95;74.69;96459.10;107944;1240;97028;-81
2023/07/28 03:49:05;;;;;;;3.70;3.30;;;;;;;13.97;74.69;96456.36;107893;1238;97752;-81
2023/07/28 03:51:31;;;;;;;8.10;3.60;;;;;;;13.99;74.84;96453.00;107917;1239;96553;-80
2023/07/28 03:53:58;;;;;;;7.50;3.70;;;;;;;14.02;74.69;96457.42;107884;1233;96747;-80
2023/07/28 03:56:24;;;;;;;4.40;3.20;;;;;;;14.04;74.79;96453.75;107841;1237;97665;-80
2023/07/28 03:58:50;;;;;;;7.20;4.00;;;;;;;14.06;74.73;96447.27;107838;1239;96542;-80
2023/07/28 04:01:18;;;;;;;4.90;3.60;;;;;;;14.09;74.80;96442.20;108008;1239;96633;-81
2023/07/28 04:03:44;;;;;;;3.50;3.20;;;;;;;14.10;74.68;96442.21;107759;1239;97507;-81
2023/07/28 04:06:11;;;;;;;5.40;4.00;;;;;;;14.09;74.57;96445.29;107926;1247;97433;-81
2023/07/28 04:08:39;;;;;;;7.00;4.70;;;;;;;14.10;74.90;96438.95;107981;1246;103327;-82
2023/07/28 04:11:05;;;;;;;7.10;4.90;;;;;;;14.09;74.77;96434.81;107946;1249;96553;-82
2023/07/28 04:13:32;;;;;;;5.10;4.20;;;;;;;14.09;74.90;96433.95;108000;1233;96638;-81
2023/07/28 04:15:58;;;;;;;5.20;4.10;;;;;;;14.10;74.75;96437.29;107500;1249;97839;-81
2023/07/28 04:18:24;;;;;;;4.40;3.40;;;;;;;14.13;74.64;96441.15;107878;1239;97839;-81
2023/07/28 04:20:50;;;;;;;7.60;3.30;;;;;;;14.15;74.85;96442.45;107794;1235;102141;-81
2023/07/28 04:23:17;;;;;;;7.50;3.50;;;;;;;14.18;74.81;96436.36;107950;1247;96546;-82
2023/07/28 04:25:43;;;;;;;3.70;3.00;;;;;;;14.20;74.78;96434.11;107934;1245;97751;-81
2023/07/28 04:28:09;;;;;;;4.20;3.50;;;;;;;14.24;74.73;96437.14;108035;1249;96636;-81
2023/07/28 04:30:36;;;;;;;5.10;3.50;;;;;;;14.27;74.91;96440.30;107948;1235;102114;-81
2023/07/28 04:33:02;;;;;;;6.20;3.80;;;;;;;14.29;74.81;96437.38;107970;1248;96565;-79
2023/07/28 04:35:30;;;;;;;7.00;4.20;;;;;;;14.30;74.84;96436.64;107958;1243;97416;-80
2023/07/28 04:37:57;;;;;;;6.00;4.30;;;;;;;14.34;74.75;96439.55;107711;1240;97749;-79
2023/07/28 04:40:23;;;;;;;4.90;3.40;;;;;;;14.34;74.56;96437.60;107927;1235;96625;-80
2023/07/28 04:42:53;;;;;;;7.80;4.10;;;;;;;14.35;74.47;96441.95;107713;1237;100534;-80
2023/07/28 04:45:19;;;;;;;5.90;3.30;;;;;;;14.38;74.65;96442.08;107795;1245;97760;-80
2023/07/28 04:47:46;;;;;;;6.60;4.20;;;;;;;14.41;74.76;96443.55;107706;1233;97845;-80
2023/07/28 04:50:12;;;;;;;7.50;4.70;;;;;;;14.44;74.93;96448.63;108005;1238;96560;-80
2023/07/28 04:52:38;;;;;;;5.60;4.20;;;;;;;14.47;75.19;96444.37;108026;1237;96834;-80
2023/07/28 04:55:05;;;;;;;5.80;4.30;;;;;;;14.52;75.18;96446.73;107862;1239;97751;-80
2023/07/28 04:57:31;;;;;;;4.80;4.20;;;;;;;14.56;75.17;96446.55;107867;1235;96621;-80
2023/07/28 04:59:57;;;;;;;4.00;3.50;;;;;;;14.57;75.36;96446.56;107857;1239;96547;-79
2023/07/28 05:02:24;;;;;;;6.60;4.00;;;;;;;14.58;75.44;96447.65;107903;1238;96563;-80
2023/07/28 05:04:50;;;;;;;4.90;4.30;;;;;;;14.59;75.30;96439.04;107886;1243;96564;-80
2023/07/28 05:07:16;;;;;;;5.20;4.10;;;;;;;14.61;75.35;96441.69;107973;1239;96574;-80
2023/07/28 05:09:44;;;;;;;6.80;4.30;;;;;;;14.62;75.49;96441.75;107683;1246;96541;-80
2023/07/28 05:12:11;;;;;;;5.40;3.80;;;;;;;14.66;75.62;96439.30;107860;1235;97762;-80
2023/07/28 05:14:37;;;;;;;4.20;3.80;;;;;;;14.68;75.42;96439.74;107898;1238;97346;-80
2023/07/28 05:17:03;;;;;;;5.50;3.60;;;;;;;14.67;75.03;96436.42;107882;1242;97331;-79
2023/07/28 05:19:30;;;;;;;6.30;3.30;;;;;;;14.69;74.71;96436.23;107845;1237;97781;-80
2023/07/28 05:21:56;;;;;;;4.90;3.70;;;;;;;14.72;74.91;96430.16;107858;1247;96616;-80
2023/07/28 05:24:22;;;;;;;7.50;3.90;;;;;;;14.74;75.05;96430.11;107908;1242;96631;-80
2023/07/28 05:26:49;;;;;;;4.40;3.30;;;;;;;14.78;75.14;96434.54;107833;1237;96975;-79
2023/07/28 05:29:15;;;;;;;3.80;3.40;;;;;;;14.81;75.10;96433.04;107815;1235;96464;-80
2023/07/28 05:31:41;;;;;;;4.50;3.70;;;;;;;14.83;74.59;96431.38;108004;1248;96542;-79
2023/07/28 05:34:07;;;;;;;5.50;3.70;;;;;;;14.85;74.70;96431.02;107867;1238;96580;-80
2023/07/28 05:36:34;;;;;;;5.90;3.50;;;;;;;14.88;75.06;96427.11;107964;1249;96968;-79
2023/07/28 05:39:00;;;;;;;6.80;3.50;;;;;;;14.92;75.11;96432.41;107869;1239;96535;-79
2023/07/28 05:41:26;;;;;;;4.40;3.00;;;;;;;14.93;75.25;96437.14;107735;1241;97097;-80
2023/07/28 05:43:53;;;;;;;4.10;3.20;;;;;;;14.94;75.26;96444.81;107920;1245;96561;-80
2023/07/28 05:46:19;;;;;;;5.40;3.70;;;;;;;14.94;75.34;96451.40;107847;1246;96975;-80
2023/07/28 05:48:45;;;;;;;5.60;3.50;;;;;;;14.94;75.14;96442.11;107990;1237;96536;-80
2023/07/28 05:51:12;;;;;;;6.80;3.60;;;;;;;14.95;75.33;96438.84;107984;1237;96587;-79
2023/07/28 05:53:38;;;;;;;5.80;3.30;;;;;;;14.97;75.36;96441.19;107856;1237;97766;-82
2023/07/28 05:56:04;;;;;;;4.90;3.30;;;;;;;15.00;74.96;96439.52;107829;1239;96968;-79
2023/07/28 05:58:30;;;;;;;5.00;3.00;;;;;;;15.01;74.83;96436.21;107880;1238;97884;-80
2023/07/28 06:00:57;;;;;;;3.40;2.80;;;;;;;15.00;74.81;96438.21;107898;1247;96556;-79
2023/07/28 06:03:23;;;;;;;6.00;3.40;;;;;;;15.04;74.40;96436.07;107825;1237;97287;-80
2023/07/28 06:05:50;;;;;;;4.40;2.80;;;;;;;15.07;74.33;96443.27;107839;1240;96956;-79
2023/07/28 06:08:17;;;;;;;5.00;2.90;;;;;;;15.08;74.15;96439.85;107978;1239;97282;-79
2023/07/28 06:10:43;;;;;;;7.20;3.20;;;;;;;15.11;74.32;96434.31;107805;1243;97071;-79
2023/07/28 06:13:10;;;;;;;5.40;3.40;;;;;;;15.14;74.43;96437.30;107810;1244;97313;-79
2023/07/28 06:15:39;;;;;;;3.60;2.90;;;;;;;15.17;74.19;96435.92;107781;1238;96633;-80
2023/07/28 06:18:05;;;;;;;5.10;3.20;;;;;;;15.18;74.55;96436.10;107374;1244;102796;-79
2023/07/28 06:20:32;;;;;;;5.10;2.90;;;;;;;15.19;74.68;96431.38;107820;1239;97779;-80
2023/07/28 06:22:58;;;;;;;4.40;3.50;;;;;;;15.20;74.60;96427.02;107840;1248;97815;-79
2023/07/28 06:25:25;;;;;;;4.40;3.30;;;;;;;15.25;74.63;96436.12;107930;1235;97853;-80
2023/07/28 06:27:51;;;;;;;4.50;3.00;;;;;;;15.28;74.58;96437.45;107953;1239;102820;-80
2023/07/28 06:30:18;;;;;;;3.20;2.70;;;;;;;15.31;74.24;96440.14;107999;1239;97403;-80
2023/07/28 06:32:44;;;;;;;7.10;4.00;;;;;;;15.35;74.48;96439.11;107943;1238;97715;-80
2023/07/28 06:35:11;;;;;;;6.00;3.70;;;;;;;15.40;74.80;96441.15;108037;1247;96493;-79
2023/07/28 06:37:38;;;;;;;5.50;3.50;;;;;;;15.47;74.84;96445.09;107919;1239;101033;-80
2023/07/28 06:40:07;;;;;;;5.50;3.30;;;;;;;15.54;75.09;96445.31;107974;1246;97759;-80
2023/07/28 06:42:35;;;;;;;4.80;2.90;;;;;;;15.62;75.03;96448.07;107885;1241;101158;-80
2023/07/28 06:45:04;;;;;;;4.10;3.40;;;;;;;15.70;75.13;96447.77;107099;1249;97444;-79
2023/07/28 06:47:30;;;;;;;4.20;3.10;;;;;;;15.75;74.72;96449.25;107861;1249;97639;-80
2023/07/28 06:49:56;;;;;;;4.80;3.40;;;;;;;15.82;74.55;96452.44;108008;1239;96878;-80
2023/07/28 06:52:23;;;;;;;4.80;3.00;;;;;;;15.87;74.35;96453.05;107914;1245;97452;-80
2023/07/28 06:54:49;;;;;;;3.80;3.20;;;;;;;15.93;74.51;96453.62;108023;1237;97752;-80
2023/07/28 06:57:16;;;;;;;3.50;3.20;;;;;;;15.98;74.45;96456.55;107883;1248;97065;-79
2023/07/28 06:59:42;;;;;;;4.70;3.20;;;;;;;16.02;74.08;96456.64;107976;1238;96441;-79
2023/07/28 07:02:09;;;;;;;4.70;3.00;;;;;;;16.07;74.17;96464.26;107956;1239;97521;-79
2023/07/28 07:04:35;;;;;;;5.60;3.30;;;;;;;16.10;74.19;96465.25;107839;1240;97745;-80
2023/07/28 07:07:02;;;;;;;4.00;3.20;;;;;;;16.13;73.80;96471.30;107931;1238;96518;-79
2023/07/28 07:09:28;;;;;;;8.50;3.30;;;;;;;16.14;73.74;96472.29;107980;1248;101238;-80
2023/07/28 07:11:55;;;;;;;3.90;2.80;;;;;;;16.16;73.67;96470.52;107844;1247;96630;-79
2023/07/28 07:14:21;;;;;;;6.20;3.40;;;;;;;16.18;73.65;96466.73;107834;1249;97773;-79
2023/07/28 07:16:49;;;;;;;4.00;3.10;;;;;;;16.21;73.66;96470.44;107926;1249;96534;-79
2023/07/28 07:19:15;;;;;;;5.50;3.30;;;;;;;16.24;73.66;96475.02;107795;1237;102816;-79
2023/07/28 07:21:44;;;;;;;6.70;2.90;;;;;;;16.28;73.66;96475.48;107879;1237;97481;-80
2023/07/28 07:24:13;;;;;;;6.30;3.40;;;;;;;16.26;73.68;96476.61;107819;1247;100602;-80
2023/07/28 07:26:40;;;;;;;3.90;2.90;;;;;;;16.26;73.75;96481.29;107970;1248;96537;-79
2023/07/28 07:29:08;;;;;;;3.70;3.20;;;;;;;16.26;73.90;96481.67;107508;1249;96703;-80
2023/07/28 07:31:34;;;;;;;4.50;3.10;;;;;;;16.29;74.03;96474.39;107449;1244;102844;-79
2023/07/28 07:34:01;;;;;;;7.80;3.20;;;;;;;16.32;73.78;96476.88;107870;1249;96600;-79
2023/07/28 07:36:27;;;;;;;6.10;3.20;;;;;;;16.38;73.89;96475.71;107821;1243;96615;-80
2023/07/28 07:38:53;;;;;;;5.30;3.00;;;;;;;16.45;73.70;96472.61;107918;1235;96612;-80
2023/07/28 07:41:22;;;;;;;5.50;3.40;;;;;;;16.52;73.51;96478.34;107861;1235;110625;-81
2023/07/28 07:43:50;;;;;;;4.20;3.00;;;;;;;16.58;73.35;96486.39;107520;1244;110783;-80
2023/07/28 07:46:16;;;;;;;3.30;3.00;;;;;;;16.61;73.38;96491.54;107868;1247;96950;-81
2023/07/28 07:48:43;;;;;;;3.80;2.90;;;;;;;16.61;73.12;96495.14;107915;1248;96537;-79
2023/07/28 07:51:09;;;;;;;6.10;2.80;;;;;;;16.64;73.23;96494.89;107802;1237;97056;-79
2023/07/28 07:53:36;;;;;;;3.50;3.10;;;;;;;16.66;73.05;96498.44;107940;1242;97161;-79
2023/07/28 07:56:07;;;;;;;7.50;3.50;;;;;;;16.68;73.26;96496.30;107837;1247;100633;-80
2023/07/28 07:58:33;;;;;;;5.80;3.00;;;;;;;16.71;73.44;96503.98;108041;1247;96636;-80
2023/07/28 08:01:00;;;;;;;4.60;3.10;;;;;;;16.73;73.58;96506.23;107974;1248;97045;-80
2023/07/28 08:03:27;;;;;;;4.10;2.90;;;;;;;16.73;73.79;96505.84;107884;1237;96484;-80
2023/07/28 08:05:53;;;;;;;5.20;2.80;;;;;;;16.73;73.78;96504.97;107941;1246;97461;-80
2023/07/28 08:08:20;;;;;;;4.40;3.40;;;;;;;16.74;74.03;96505.35;107848;1247;97440;-79
2023/07/28 08:10:47;;;;;;;3.90;2.80;;;;;;;16.72;73.88;96504.70;107749;1238;96525;-79
2023/07/28 08:13:15;;;;;;;3.90;3.10;;;;;;;16.73;74.15;96506.49;107421;1249;96718;-80
2023/07/28 08:15:43;;;;;;;3.70;2.80;;;;;;;16.76;74.54;96500.71;107971;1237;96474;-80
2023/07/28 08:18:11;;;;;;;5.60;3.10;;;;;;;16.84;74.89;96504.80;107756;1240;100157;-82
2023/07/28 08:20:38;;;;;;;3.70;2.80;;;;;;;16.89;74.78;96504.48;107991;1246;96661;-80
2023/07/28 08:23:04;;;;;;;3.00;2.70;;;;;;;16.93;74.56;96501.73;108011;1247;96464;-79
2023/07/28 08:25:31;;;;;;;4.30;2.80;;;;;;;16.96;74.48;96504.42;107405;1242;97344;-79
2023/07/28 08:27:57;;;;;;;6.40;3.70;;;;;;;17.00;74.67;96511.73;108063;1237;97670;-79
2023/07/28 08:30:24;;;;;;;3.20;2.90;;;;;;;17.03;74.84;96512.20;107730;1240;97467;-79
2023/07/28 08:32:50;;;;;;;4.00;3.10;;;;;;;17.06;74.65;96512.70;107793;1242;97305;-79
2023/07/28 08:35:17;;;;;;;3.90;2.90;;;;;;;17.08;74.53;96507.79;107971;1235;97763;-80
2023/07/28 08:37:44;;;;;;;3.50;3.10;;;;;;;17.10;74.51;96502.50;107963;1249;96560;-79
2023/07/28 08:40:12;;;;;;;3.20;2.90;;;;;;;17.15;74.77;96502.33;107798;1247;97229;-79
2023/07/28 08:42:40;;;;;;;4.00;2.90;;;;;;;17.17;74.77;96501.93;107790;1246;97030;-80
2023/07/28 08:45:08;;;;;;;3.10;2.60;;;;;;;17.20;74.29;96501.02;107884;1246;102869;-79
2023/07/28 08:47:37;;;;;;;3.30;2.60;;;;;;;17.24;74.41;96497.91;107975;1242;102084;-79
2023/07/28 08:50:05;;;;;;;3.70;2.80;;;;;;;17.29;74.75;96492.76;107376;1244;100727;-79
2023/07/28 08:52:32;;;;;;;3.10;2.70;;;;;;;17.33;74.99;96490.89;107611;1249;97065;-79
2023/07/28 08:54:59;;;;;;;5.20;2.90;;;;;;;17.37;74.93;96492.05;107886;1238;96605;-79
2023/07/28 08:57:25;;;;;;;4.20;3.30;;;;;;;17.39;74.99;96490.88;107888;1247;97327;-80
2023/07/28 08:59:51;;;;;;;4.20;3.00;;;;;;;17.43;74.71;96493.33;108030;1247;96533;-80
2023/07/28 09:02:19;;;;;;;3.50;3.00;;;;;;;17.46;74.73;96493.87;107963;1246;96536;-80
2023/07/28 09:04:48;;;;;;;3.00;2.40;;;;;;;17.48;74.80;96490.87;107980;1236;96967;-80
2023/07/28 09:07:15;;;;;;;7.30;2.60;;;;;;;17.48;74.36;96496.32;107821;1237;111736;-81
2023/07/28 09:09:42;;;;;;;3.00;2.70;;;;;;;17.45;74.20;96488.09;107915;1247;97069;-80
2023/07/28 09:12:08;;;;;;;4.00;2.90;;;;;;;17.46;74.38;96487.20;107880;1241;97938;-80
2023/07/28 09:14:36;;;;;;;5.30;2.70;;;;;;;17.48;74.64;96489.39;107991;1249;96561;-80
2023/07/28 09:17:11;;;;;;;4.80;3.00;;;;;;;17.52;74.58;96486.20;108057;1237;96533;-80
2023/07/28 09:19:54;;;;;;;4.40;3.10;;;;;;;17.58;74.20;96489.90;108004;1237;101051;-80
2023/07/28 09:22:21;;;;;;;4.30;3.10;;;;;;;17.60;74.19;96491.48;107586;1249;102213;-80
2023/07/28 09:24:48;;;;;;;5.90;3.10;;;;;;;17.61;74.18;96492.79;107990;1236;96570;-80
2023/07/28 09:27:25;;;;;;;3.50;2.90;;;;;;;17.67;74.41;96491.30;107996;1239;96695;-82
2023/07/28 09:29:55;;;;;;;3.70;2.80;;;;;;;17.72;74.05;96483.89;107367;1249;98403;-81
2023/07/28 09:32:33;;;;;;;3.30;2.80;;;;;;;17.78;74.33;96485.81;107561;1242;102765;-81
2023/07/28 09:35:08;;;;;;;2.90;2.60;;;;;;;17.87;74.05;96481.63;107999;1237;101957;-81
2023/07/28 09:37:37;;;;;;;4.80;3.30;;;;;;;17.94;73.74;96477.45;107725;1241;100565;-80
2023/07/28 09:40:10;;;;;;;3.70;3.00;;;;;;;17.98;73.65;96473.40;107465;1249;97412;-81
2023/07/28 09:42:36;;;;;;;4.90;2.90;;;;;;;18.02;73.75;96471.13;108033;1242;97634;-82
2023/07/28 09:45:03;;;;;;;4.10;3.30;;;;;;;18.05;73.33;96474.60;108004;1243;96872;-81
2023/07/28 09:47:33;;;;;;;4.50;3.30;;;;;;;18.08;73.21;96478.10;107959;1237;96767;-81
2023/07/28 09:50:06;;;;;;;5.50;2.90;;;;;;;18.13;73.29;96477.13;107926;1237;100692;-80
2023/07/28 09:52:40;;;;;;;5.70;3.10;;;;;;;18.19;73.18;96479.02;108038;1240;97139;-81
2023/07/28 09:55:10;;;;;;;3.30;2.90;;;;;;;18.21;72.99;96473.81;108049;1247;96974;-80
2023/07/28 09:57:51;;;;;;;3.60;3.00;;;;;;;18.26;73.01;96477.77;108054;1238;102782;-80
2023/07/28 10:00:19;;;;;;;3.60;3.00;;;;;;;18.32;72.92;96479.65;107575;1237;102120;-80
2023/07/28 10:02:45;;;;;;;3.20;2.90;;;;;;;18.39;73.14;96476.10;107883;1240;100663;-81
2023/07/28 10:05:12;;;;;;;5.50;3.10;;;;;;;18.46;73.04;96475.62;107984;1237;97415;-80
2023/07/28 10:07:40;;;;;;;3.80;3.20;;;;;;;18.53;72.87;96472.98;108014;1238;97773;-81
2023/07/28 10:10:10;;;;;;;3.20;2.90;;;;;;;18.63;72.98;96477.38;108171;1247;97773;-82
2023/07/28 10:12:47;;;;;;;3.70;3.00;;;;;;;18.75;73.03;96478.05;108028;1247;102261;-80
2023/07/28 10:15:16;;;;;;;3.60;3.30;;;;;;;18.88;72.86;96486.42;108043;1247;100695;-82
2023/07/28 10:17:57;;;;;;;4.70;3.10;;;;;;;19.03;72.51;96490.34;108023;1247;96737;-81
2023/07/28 10:20:32;;;;;;;3.40;2.90;;;;;;;19.13;72.06;96491.23;108002;1235;97351;-80
2023/07/28 10:23:08;;;;;;;3.30;2.90;;;;;;;19.18;72.11;96491.85;107934;1239;102810;-84
2023/07/28 10:25:36;;;;;;;2.90;2.60;;;;;;;19.17;71.84;96493.50;107953;1249;102399;-81
2023/07/28 10:28:04;;;;;;;2.80;2.50;;;;;;;19.15;72.04;96498.27;107214;1249;109255;-84
2023/07/28 10:30:53;;;;;;;3.30;2.80;;;;;;;19.14;71.90;96502.16;108034;1249;96545;-83
2023/07/28 10:33:40;;;;;;;4.00;2.90;;;;;;;19.12;71.83;96503.87;107918;1239;96998;-81
2023/07/28 10:36:34;;;;;;;3.00;2.70;;;;;;;19.11;72.12;96508.25;108036;1245;102906;-82
2023/07/28 10:39:17;;;;;;;3.30;2.80;;;;;;;19.08;72.25;96512.29;107567;1245;101859;-81
2023/07/28 10:42:08;;;;;;;3.40;2.80;;;;;;;19.06;72.17;96513.63;107850;1237;100513;-82
2023/07/28 10:44:35;;;;;;;4.00;2.80;;;;;;;19.03;72.41;96511.84;107907;1237;96579;-81
2023/07/28 10:47:02;;;;;;;4.20;3.00;;;;;;;19.03;72.74;96510.80;107997;1239;96890;-80
2023/07/28 10:49:29;;;;;;;3.70;3.00;;;;;;;19.06;72.90;96512.64;107422;1245;97125;-81
2023/07/28 10:51:56;;;;;;;3.10;2.70;;;;;;;19.11;73.15;96516.36;107474;1246;97151;-83
2023/07/28 10:54:22;;;;;;;2.90;2.60;;;;;;;19.12;73.04;96516.52;107409;1238;97961;-81
2023/07/28 10:56:49;;;;;;;3.30;2.60;;;;;;;19.06;72.86;96517.17;107570;1244;97820;-81
2023/07/28 10:59:16;;;;;;;3.10;2.60;;;;;;;19.00;72.95;96516.00;107361;1248;102852;-80
2023/07/28 11:01:43;;;;;;;2.70;2.50;;;;;;;19.00;73.48;96512.39;107460;1251;97191;-80
2023/07/28 11:04:20;;;;;;;2.60;2.40;;;;;;;19.03;73.76;96512.87;107271;1242;96763;-79
2023/07/28 11:06:49;;;;;;;2.90;2.20;;;;;;;19.07;73.82;96511.20;107543;1246;96812;-81
2023/07/28 11:09:18;;;;;;;2.60;2.40;;;;;;;19.10;73.92;96509.96;107228;1247;98208;-81
2023/07/28 11:11:45;;;;;;;3.10;2.80;;;;;;;19.17;74.09;96508.98;107544;1238;103062;-80
2023/07/28 11:14:12;;;;;;;3.60;3.20;;;;;;;19.22;74.03;96509.95;107476;1242;98007;-81
2023/07/28 11:16:40;;;;;;;2.70;2.20;;;;;;;19.23;74.11;96510.06;107342;1243;97147;-79
2023/07/28 11:19:13;;;;;;;3.40;2.80;;;;;;;19.23;73.69;96508.30;107284;1246;96551;-82
2023/07/28 11:21:41;;;;;;;3.10;2.20;;;;;;;19.21;73.54;96507.85;107248;1241;97098;-80
2023/07/28 11:24:08;;;;;;;2.30;2.00;;;;;;;19.19;73.17;96500.33;107958;1242;102747;-81
2023/07/28 11:26:39;;;;;;;4.60;3.10;;;;;;;19.21;73.26;96504.66;107901;1237;97433;-82